sensor_id;sensor_type;location;lat;lon;timestamp;P1;durP1;ratioP1;P2;durP2;ratioP2
15629;SDS011;7914;50.842;0.166;2023-03-26T00:01:06;11.05;;;3.25;;
15629;SDS011;7914;50.842;0.166;2023-03-26T00:03:35;10.63;;;2.60;;
15629;SDS011;7914;50.842;0.166;2023-03-26T00:06:06;17.63;;;3.25;;
15629;SDS011;7914;50.842;0.166;2023-03-26T00:08:35;13.77;;;2.50;;
15629;SDS011;7914;50.842;0.166;2023-03-26T00:11:02;16.25;;;2.85;;
15629;SDS011;7914;50.842;0.166;2023-03-26T00:13:30;11.05;;;2.53;;
15629;SDS011;7914;50.842;0.166;2023-03-26T00:15:57;11.63;;;3.13;;
15629;SDS011;7914;50.842;0.166;2023-03-26T00:18:23;12.70;;;3.05;;
15629;SDS011;7914;50.842;0.166;2023-03-26T00:20:54;15.07;;;3.20;;
15629;SDS011;7914;50.842;0.166;2023-03-26T00:23:22;16.38;;;3.00;;
15629;SDS011;7914;50.842;0.166;2023-03-26T00:25:47;16.65;;;3.25;;
15629;SDS011;7914;50.842;0.166;2023-03-26T00:28:17;14.48;;;2.55;;
15629;SDS011;7914;50.842;0.166;2023-03-26T00:30:56;12.70;;;2.03;;
15629;SDS011;7914;50.842;0.166;2023-03-26T00:33:27;14.18;;;2.83;;
15629;SDS011;7914;50.842;0.166;2023-03-26T00:35:53;11.00;;;2.15;;
15629;SDS011;7914;50.842;0.166;2023-03-26T00:38:22;11.27;;;2.80;;
15629;SDS011;7914;50.842;0.166;2023-03-26T00:40:49;12.13;;;2.35;;
15629;SDS011;7914;50.842;0.166;2023-03-26T00:43:16;16.33;;;2.47;;
15629;SDS011;7914;50.842;0.166;2023-03-26T00:45:51;13.13;;;2.00;;
15629;SDS011;7914;50.842;0.166;2023-03-26T00:48:19;14.10;;;2.63;;
15629;SDS011;7914;50.842;0.166;2023-03-26T00:50:46;16.90;;;3.17;;
15629;SDS011;7914;50.842;0.166;2023-03-26T00:53:13;15.20;;;3.60;;
15629;SDS011;7914;50.842;0.166;2023-03-26T00:55:41;17.85;;;3.30;;
15629;SDS011;7914;50.842;0.166;2023-03-26T00:58:08;14.13;;;2.47;;
15629;SDS011;7914;50.842;0.166;2023-03-26T01:00:41;16.10;;;3.20;;
15629;SDS011;7914;50.842;0.166;2023-03-26T01:03:13;13.15;;;2.50;;
15629;SDS011;7914;50.842;0.166;2023-03-26T01:11:04;19.25;;;3.35;;
15629;SDS011;7914;50.842;0.166;2023-03-26T01:13:38;11.95;;;2.13;;
15629;SDS011;7914;50.842;0.166;2023-03-26T01:16:13;14.60;;;2.80;;
15629;SDS011;7914;50.842;0.166;2023-03-26T01:19:02;17.38;;;2.25;;
15629;SDS011;7914;50.842;0.166;2023-03-26T01:21:34;13.13;;;2.92;;
15629;SDS011;7914;50.842;0.166;2023-03-26T01:24:06;16.33;;;2.42;;
15629;SDS011;7914;50.842;0.166;2023-03-26T01:43:08;14.05;;;2.75;;
15629;SDS011;7914;50.842;0.166;2023-03-26T01:45:37;11.38;;;2.45;;
15629;SDS011;7914;50.842;0.166;2023-03-26T01:48:05;13.85;;;2.80;;
15629;SDS011;7914;50.842;0.166;2023-03-26T01:50:31;9.85;;;1.83;;
15629;SDS011;7914;50.842;0.166;2023-03-26T01:52:57;9.98;;;1.90;;
15629;SDS011;7914;50.842;0.166;2023-03-26T01:56:24;11.88;;;1.80;;
15629;SDS011;7914;50.842;0.166;2023-03-26T01:58:33;13.48;;;2.35;;
15629;SDS011;7914;50.842;0.166;2023-03-26T02:01:11;9.95;;;2.13;;
15629;SDS011;7914;50.842;0.166;2023-03-26T02:06:56;15.32;;;2.35;;
15629;SDS011;7914;50.842;0.166;2023-03-26T02:09:30;8.75;;;1.60;;
15629;SDS011;7914;50.842;0.166;2023-03-26T02:12:01;19.30;;;2.60;;
15629;SDS011;7914;50.842;0.166;2023-03-26T02:14:29;8.90;;;1.88;;
15629;SDS011;7914;50.842;0.166;2023-03-26T02:16:56;7.93;;;2.17;;
15629;SDS011;7914;50.842;0.166;2023-03-26T02:19:23;10.85;;;1.98;;
15629;SDS011;7914;50.842;0.166;2023-03-26T02:21:49;7.05;;;1.88;;
15629;SDS011;7914;50.842;0.166;2023-03-26T02:24:16;7.07;;;1.88;;
15629;SDS011;7914;50.842;0.166;2023-03-26T02:26:43;6.90;;;2.55;;
15629;SDS011;7914;50.842;0.166;2023-03-26T02:29:10;8.35;;;1.85;;
15629;SDS011;7914;50.842;0.166;2023-03-26T02:31:37;7.75;;;1.25;;
15629;SDS011;7914;50.842;0.166;2023-03-26T02:34:03;13.07;;;2.00;;
15629;SDS011;7914;50.842;0.166;2023-03-26T02:36:29;8.25;;;1.60;;
15629;SDS011;7914;50.842;0.166;2023-03-26T02:38:55;7.18;;;2.28;;
15629;SDS011;7914;50.842;0.166;2023-03-26T02:41:22;10.23;;;1.73;;
15629;SDS011;7914;50.842;0.166;2023-03-26T02:43:48;5.75;;;1.63;;
15629;SDS011;7914;50.842;0.166;2023-03-26T02:46:15;6.63;;;1.80;;
15629;SDS011;7914;50.842;0.166;2023-03-26T02:48:41;5.43;;;1.10;;
15629;SDS011;7914;50.842;0.166;2023-03-26T02:51:08;7.97;;;1.52;;
15629;SDS011;7914;50.842;0.166;2023-03-26T02:53:34;7.60;;;1.40;;
15629;SDS011;7914;50.842;0.166;2023-03-26T02:56:01;4.93;;;1.33;;
15629;SDS011;7914;50.842;0.166;2023-03-26T02:58:27;7.55;;;1.20;;
15629;SDS011;7914;50.842;0.166;2023-03-26T03:00:54;5.25;;;1.10;;
15629;SDS011;7914;50.842;0.166;2023-03-26T03:03:21;6.78;;;1.20;;
15629;SDS011;7914;50.842;0.166;2023-03-26T03:05:52;5.18;;;1.48;;
15629;SDS011;7914;50.842;0.166;2023-03-26T03:08:22;6.05;;;2.00;;
15629;SDS011;7914;50.842;0.166;2023-03-26T03:10:57;6.97;;;1.25;;
15629;SDS011;7914;50.842;0.166;2023-03-26T03:13:34;1.80;;;0.75;;
15629;SDS011;7914;50.842;0.166;2023-03-26T03:16:00;2.40;;;0.52;;
15629;SDS011;7914;50.842;0.166;2023-03-26T03:18:27;3.20;;;0.85;;
15629;SDS011;7914;50.842;0.166;2023-03-26T03:20:52;2.53;;;0.57;;
15629;SDS011;7914;50.842;0.166;2023-03-26T03:23:19;2.58;;;0.93;;
15629;SDS011;7914;50.842;0.166;2023-03-26T03:25:45;1.52;;;0.65;;
15629;SDS011;7914;50.842;0.166;2023-03-26T03:28:11;3.08;;;0.82;;
15629;SDS011;7914;50.842;0.166;2023-03-26T03:30:38;2.25;;;0.50;;
15629;SDS011;7914;50.842;0.166;2023-03-26T03:33:04;6.78;;;1.25;;
15629;SDS011;7914;50.842;0.166;2023-03-26T03:35:30;1.85;;;0.50;;
15629;SDS011;7914;50.842;0.166;2023-03-26T03:37:57;3.53;;;0.70;;
15629;SDS011;7914;50.842;0.166;2023-03-26T03:40:23;3.65;;;0.63;;
15629;SDS011;7914;50.842;0.166;2023-03-26T03:42:50;4.70;;;1.10;;
15629;SDS011;7914;50.842;0.166;2023-03-26T03:45:16;2.38;;;0.73;;
15629;SDS011;7914;50.842;0.166;2023-03-26T03:47:43;2.97;;;0.90;;
15629;SDS011;7914;50.842;0.166;2023-03-26T03:50:09;3.17;;;0.75;;
15629;SDS011;7914;50.842;0.166;2023-03-26T03:52:35;3.10;;;0.85;;
15629;SDS011;7914;50.842;0.166;2023-03-26T03:55:00;3.17;;;0.95;;
15629;SDS011;7914;50.842;0.166;2023-03-26T03:57:27;4.55;;;0.80;;
15629;SDS011;7914;50.842;0.166;2023-03-26T03:59:53;2.83;;;0.75;;
15629;SDS011;7914;50.842;0.166;2023-03-26T04:02:22;3.88;;;1.33;;
15629;SDS011;7914;50.842;0.166;2023-03-26T04:04:55;4.88;;;1.17;;
15629;SDS011;7914;50.842;0.166;2023-03-26T04:07:24;4.18;;;1.00;;
15629;SDS011;7914;50.842;0.166;2023-03-26T04:09:50;2.47;;;0.73;;
15629;SDS011;7914;50.842;0.166;2023-03-26T04:12:17;1.80;;;0.70;;
15629;SDS011;7914;50.842;0.166;2023-03-26T04:14:42;1.65;;;0.60;;
15629;SDS011;7914;50.842;0.166;2023-03-26T04:17:08;5.65;;;1.20;;
15629;SDS011;7914;50.842;0.166;2023-03-26T04:19:37;3.15;;;1.30;;
15629;SDS011;7914;50.842;0.166;2023-03-26T04:22:03;1.58;;;0.77;;
15629;SDS011;7914;50.842;0.166;2023-03-26T04:24:29;4.85;;;0.85;;
15629;SDS011;7914;50.842;0.166;2023-03-26T04:27:04;1.40;;;0.65;;
15629;SDS011;7914;50.842;0.166;2023-03-26T04:29:37;4.22;;;1.15;;
15629;SDS011;7914;50.842;0.166;2023-03-26T04:32:15;5.20;;;1.25;;
15629;SDS011;7914;50.842;0.166;2023-03-26T04:34:58;2.33;;;0.82;;
15629;SDS011;7914;50.842;0.166;2023-03-26T04:40:01;3.90;;;0.90;;
15629;SDS011;7914;50.842;0.166;2023-03-26T04:42:35;3.50;;;0.63;;
15629;SDS011;7914;50.842;0.166;2023-03-26T04:45:05;6.15;;;0.90;;
15629;SDS011;7914;50.842;0.166;2023-03-26T04:47:32;3.92;;;0.88;;
15629;SDS011;7914;50.842;0.166;2023-03-26T04:50:03;4.40;;;1.33;;
15629;SDS011;7914;50.842;0.166;2023-03-26T04:52:30;4.22;;;0.88;;
15629;SDS011;7914;50.842;0.166;2023-03-26T04:54:57;6.18;;;0.98;;
15629;SDS011;7914;50.842;0.166;2023-03-26T04:57:31;8.68;;;1.35;;
15629;SDS011;7914;50.842;0.166;2023-03-26T05:00:04;3.78;;;0.82;;
15629;SDS011;7914;50.842;0.166;2023-03-26T05:02:43;3.85;;;1.13;;
15629;SDS011;7914;50.842;0.166;2023-03-26T05:05:14;5.63;;;0.70;;
15629;SDS011;7914;50.842;0.166;2023-03-26T05:07:40;4.85;;;1.10;;
15629;SDS011;7914;50.842;0.166;2023-03-26T05:10:06;3.42;;;0.70;;
15629;SDS011;7914;50.842;0.166;2023-03-26T05:12:33;4.72;;;0.90;;
15629;SDS011;7914;50.842;0.166;2023-03-26T05:14:59;3.15;;;0.63;;
15629;SDS011;7914;50.842;0.166;2023-03-26T05:17:25;5.00;;;0.90;;
15629;SDS011;7914;50.842;0.166;2023-03-26T05:19:55;1.95;;;0.70;;
15629;SDS011;7914;50.842;0.166;2023-03-26T05:22:21;4.88;;;1.25;;
15629;SDS011;7914;50.842;0.166;2023-03-26T05:24:47;3.05;;;0.75;;
15629;SDS011;7914;50.842;0.166;2023-03-26T05:27:16;2.85;;;1.08;;
15629;SDS011;7914;50.842;0.166;2023-03-26T05:29:45;2.80;;;0.80;;
15629;SDS011;7914;50.842;0.166;2023-03-26T05:32:11;3.85;;;1.05;;
15629;SDS011;7914;50.842;0.166;2023-03-26T05:34:38;4.65;;;0.80;;
15629;SDS011;7914;50.842;0.166;2023-03-26T05:37:04;3.90;;;0.70;;
15629;SDS011;7914;50.842;0.166;2023-03-26T05:39:31;6.82;;;1.20;;
15629;SDS011;7914;50.842;0.166;2023-03-26T05:41:57;3.53;;;0.88;;
15629;SDS011;7914;50.842;0.166;2023-03-26T05:44:23;2.80;;;0.80;;
15629;SDS011;7914;50.842;0.166;2023-03-26T05:46:49;4.60;;;0.95;;
15629;SDS011;7914;50.842;0.166;2023-03-26T05:49:15;3.72;;;1.10;;
15629;SDS011;7914;50.842;0.166;2023-03-26T05:51:41;1.80;;;0.55;;
15629;SDS011;7914;50.842;0.166;2023-03-26T05:54:07;3.15;;;0.70;;
15629;SDS011;7914;50.842;0.166;2023-03-26T05:56:33;2.38;;;1.33;;
15629;SDS011;7914;50.842;0.166;2023-03-26T05:59:00;2.95;;;1.25;;
15629;SDS011;7914;50.842;0.166;2023-03-26T06:01:25;3.28;;;0.80;;
15629;SDS011;7914;50.842;0.166;2023-03-26T06:03:53;2.28;;;0.80;;
15629;SDS011;7914;50.842;0.166;2023-03-26T06:06:19;4.15;;;0.82;;
15629;SDS011;7914;50.842;0.166;2023-03-26T06:08:46;2.35;;;0.50;;
15629;SDS011;7914;50.842;0.166;2023-03-26T06:11:14;0.57;;;0.40;;
15629;SDS011;7914;50.842;0.166;2023-03-26T06:13:41;3.47;;;0.85;;
15629;SDS011;7914;50.842;0.166;2023-03-26T06:16:08;2.70;;;0.50;;
15629;SDS011;7914;50.842;0.166;2023-03-26T06:18:36;2.72;;;0.65;;
15629;SDS011;7914;50.842;0.166;2023-03-26T06:21:02;2.20;;;0.80;;
15629;SDS011;7914;50.842;0.166;2023-03-26T06:23:29;1.77;;;0.63;;
15629;SDS011;7914;50.842;0.166;2023-03-26T06:25:54;1.52;;;0.68;;
15629;SDS011;7914;50.842;0.166;2023-03-26T06:28:21;2.08;;;0.50;;
15629;SDS011;7914;50.842;0.166;2023-03-26T06:30:47;2.88;;;0.73;;
15629;SDS011;7914;50.842;0.166;2023-03-26T06:33:12;4.78;;;0.90;;
15629;SDS011;7914;50.842;0.166;2023-03-26T06:35:38;3.60;;;1.13;;
15629;SDS011;7914;50.842;0.166;2023-03-26T06:38:04;2.45;;;0.68;;
15629;SDS011;7914;50.842;0.166;2023-03-26T06:40:32;4.45;;;0.95;;
15629;SDS011;7914;50.842;0.166;2023-03-26T06:42:58;2.55;;;0.60;;
15629;SDS011;7914;50.842;0.166;2023-03-26T06:45:25;5.28;;;1.50;;
15629;SDS011;7914;50.842;0.166;2023-03-26T06:47:51;3.42;;;0.98;;
15629;SDS011;7914;50.842;0.166;2023-03-26T06:50:17;1.50;;;0.68;;
15629;SDS011;7914;50.842;0.166;2023-03-26T06:52:44;2.15;;;0.65;;
15629;SDS011;7914;50.842;0.166;2023-03-26T06:55:10;3.00;;;0.90;;
15629;SDS011;7914;50.842;0.166;2023-03-26T06:57:37;4.88;;;0.80;;
15629;SDS011;7914;50.842;0.166;2023-03-26T07:00:04;1.83;;;0.60;;
15629;SDS011;7914;50.842;0.166;2023-03-26T07:02:30;2.03;;;0.60;;
15629;SDS011;7914;50.842;0.166;2023-03-26T07:04:58;2.30;;;0.75;;
15629;SDS011;7914;50.842;0.166;2023-03-26T07:07:23;2.45;;;0.50;;
15629;SDS011;7914;50.842;0.166;2023-03-26T07:09:50;2.22;;;0.93;;
15629;SDS011;7914;50.842;0.166;2023-03-26T07:12:16;2.20;;;0.63;;
15629;SDS011;7914;50.842;0.166;2023-03-26T07:14:41;2.80;;;0.75;;
15629;SDS011;7914;50.842;0.166;2023-03-26T07:17:08;2.65;;;0.63;;
15629;SDS011;7914;50.842;0.166;2023-03-26T07:19:35;4.00;;;0.77;;
15629;SDS011;7914;50.842;0.166;2023-03-26T07:22:01;2.25;;;0.68;;
15629;SDS011;7914;50.842;0.166;2023-03-26T07:24:27;2.25;;;0.50;;
15629;SDS011;7914;50.842;0.166;2023-03-26T07:35:18;1.05;;;0.60;;
15629;SDS011;7914;50.842;0.166;2023-03-26T07:40:51;1.67;;;0.65;;
15629;SDS011;7914;50.842;0.166;2023-03-26T07:43:34;2.08;;;0.73;;
15629;SDS011;7914;50.842;0.166;2023-03-26T07:46:29;1.95;;;0.60;;
15629;SDS011;7914;50.842;0.166;2023-03-26T07:48:59;1.65;;;0.52;;
15629;SDS011;7914;50.842;0.166;2023-03-26T07:51:26;0.75;;;0.50;;
15629;SDS011;7914;50.842;0.166;2023-03-26T07:53:53;1.17;;;0.30;;
15629;SDS011;7914;50.842;0.166;2023-03-26T07:56:23;0.50;;;0.30;;
15629;SDS011;7914;50.842;0.166;2023-03-26T07:59:11;0.88;;;0.20;;
15629;SDS011;7914;50.842;0.166;2023-03-26T08:04:56;3.00;;;0.60;;
15629;SDS011;7914;50.842;0.166;2023-03-26T08:28:52;0.85;;;0.30;;
15629;SDS011;7914;50.842;0.166;2023-03-26T08:31:33;1.13;;;0.17;;
15629;SDS011;7914;50.842;0.166;2023-03-26T08:34:01;1.25;;;0.30;;
15629;SDS011;7914;50.842;0.166;2023-03-26T08:36:26;0.52;;;0.22;;
15629;SDS011;7914;50.842;0.166;2023-03-26T08:38:53;0.73;;;0.15;;
15629;SDS011;7914;50.842;0.166;2023-03-26T08:50:44;1.15;;;0.45;;
15629;SDS011;7914;50.842;0.166;2023-03-26T08:56:22;2.42;;;0.60;;
15629;SDS011;7914;50.842;0.166;2023-03-26T09:02:09;1.65;;;0.52;;
15629;SDS011;7914;50.842;0.166;2023-03-26T09:34:53;3.90;;;1.35;;
15629;SDS011;7914;50.842;0.166;2023-03-26T09:42:51;3.08;;;1.08;;
15629;SDS011;7914;50.842;0.166;2023-03-26T09:51:31;4.95;;;1.20;;
15629;SDS011;7914;50.842;0.166;2023-03-26T09:54:19;2.30;;;0.90;;
15629;SDS011;7914;50.842;0.166;2023-03-26T09:59:59;3.75;;;1.60;;
15629;SDS011;7914;50.842;0.166;2023-03-26T10:18:33;2.72;;;1.20;;
15629;SDS011;7914;50.842;0.166;2023-03-26T10:21:17;5.70;;;1.15;;
15629;SDS011;7914;50.842;0.166;2023-03-26T10:34:24;3.03;;;0.93;;
15629;SDS011;7914;50.842;0.166;2023-03-26T10:42:20;2.38;;;0.88;;
15629;SDS011;7914;50.842;0.166;2023-03-26T10:53:30;3.63;;;0.77;;
15629;SDS011;7914;50.842;0.166;2023-03-26T10:56:16;3.03;;;1.08;;
15629;SDS011;7914;50.842;0.166;2023-03-26T10:58:50;3.17;;;0.98;;
15629;SDS011;7914;50.842;0.166;2023-03-26T11:01:52;3.78;;;1.20;;
15629;SDS011;7914;50.842;0.166;2023-03-26T11:09:56;7.18;;;2.80;;
15629;SDS011;7914;50.842;0.166;2023-03-26T11:12:55;1.73;;;0.70;;
15629;SDS011;7914;50.842;0.166;2023-03-26T11:15:35;1.65;;;0.52;;
15629;SDS011;7914;50.842;0.166;2023-03-26T11:23:59;1.85;;;1.05;;
15629;SDS011;7914;50.842;0.166;2023-03-26T11:29:11;1.80;;;0.60;;
15629;SDS011;7914;50.842;0.166;2023-03-26T11:32:06;3.30;;;1.02;;
15629;SDS011;7914;50.842;0.166;2023-03-26T11:34:43;1.60;;;0.63;;
15629;SDS011;7914;50.842;0.166;2023-03-26T11:37:19;3.28;;;0.90;;
15629;SDS011;7914;50.842;0.166;2023-03-26T11:39:56;1.70;;;0.65;;
15629;SDS011;7914;50.842;0.166;2023-03-26T11:42:28;3.00;;;0.77;;
15629;SDS011;7914;50.842;0.166;2023-03-26T11:44:58;1.88;;;0.60;;
15629;SDS011;7914;50.842;0.166;2023-03-26T11:47:43;1.25;;;0.57;;
15629;SDS011;7914;50.842;0.166;2023-03-26T11:50:16;2.03;;;0.77;;
15629;SDS011;7914;50.842;0.166;2023-03-26T11:52:58;1.42;;;0.77;;
15629;SDS011;7914;50.842;0.166;2023-03-26T11:55:35;3.83;;;1.10;;
15629;SDS011;7914;50.842;0.166;2023-03-26T11:58:05;2.10;;;0.88;;
15629;SDS011;7914;50.842;0.166;2023-03-26T12:00:48;2.97;;;1.00;;
15629;SDS011;7914;50.842;0.166;2023-03-26T12:03:16;2.05;;;0.90;;
15629;SDS011;7914;50.842;0.166;2023-03-26T12:05:49;1.33;;;0.70;;
15629;SDS011;7914;50.842;0.166;2023-03-26T12:08:22;7.35;;;3.60;;
15629;SDS011;7914;50.842;0.166;2023-03-26T12:11:05;1.05;;;0.68;;
15629;SDS011;7914;50.842;0.166;2023-03-26T12:13:36;4.95;;;2.17;;
15629;SDS011;7914;50.842;0.166;2023-03-26T12:16:15;5.03;;;2.60;;
15629;SDS011;7914;50.842;0.166;2023-03-26T12:18:44;3.13;;;1.20;;
15629;SDS011;7914;50.842;0.166;2023-03-26T12:21:21;1.83;;;0.88;;
15629;SDS011;7914;50.842;0.166;2023-03-26T12:24:01;2.75;;;1.20;;
15629;SDS011;7914;50.842;0.166;2023-03-26T12:26:40;1.48;;;0.70;;
15629;SDS011;7914;50.842;0.166;2023-03-26T12:29:10;2.35;;;0.88;;
15629;SDS011;7914;50.842;0.166;2023-03-26T12:31:50;2.30;;;0.80;;
15629;SDS011;7914;50.842;0.166;2023-03-26T12:34:36;1.45;;;0.65;;
15629;SDS011;7914;50.842;0.166;2023-03-26T12:37:05;2.22;;;1.08;;
15629;SDS011;7914;50.842;0.166;2023-03-26T12:39:53;3.88;;;1.05;;
15629;SDS011;7914;50.842;0.166;2023-03-26T12:42:38;1.70;;;0.60;;
15629;SDS011;7914;50.842;0.166;2023-03-26T12:45:04;2.13;;;0.70;;
15629;SDS011;7914;50.842;0.166;2023-03-26T12:47:30;1.95;;;0.77;;
15629;SDS011;7914;50.842;0.166;2023-03-26T12:49:57;2.00;;;0.82;;
15629;SDS011;7914;50.842;0.166;2023-03-26T12:58:05;1.92;;;0.77;;
15629;SDS011;7914;50.842;0.166;2023-03-26T13:11:04;2.33;;;0.88;;
15629;SDS011;7914;50.842;0.166;2023-03-26T13:16:39;2.63;;;1.10;;
15629;SDS011;7914;50.842;0.166;2023-03-26T13:25:17;2.65;;;0.70;;
15629;SDS011;7914;50.842;0.166;2023-03-26T13:46:38;1.90;;;0.80;;
15629;SDS011;7914;50.842;0.166;2023-03-26T13:49:14;2.17;;;0.98;;
15629;SDS011;7914;50.842;0.166;2023-03-26T13:52:07;3.42;;;1.05;;
15629;SDS011;7914;50.842;0.166;2023-03-26T13:54:39;3.97;;;0.85;;
15629;SDS011;7914;50.842;0.166;2023-03-26T13:57:17;3.13;;;1.00;;
15629;SDS011;7914;50.842;0.166;2023-03-26T14:00:23;1.33;;;0.70;;
15629;SDS011;7914;50.842;0.166;2023-03-26T14:03:01;3.75;;;1.70;;
15629;SDS011;7914;50.842;0.166;2023-03-26T14:05:37;3.92;;;1.00;;
15629;SDS011;7914;50.842;0.166;2023-03-26T14:08:29;4.10;;;1.20;;
15629;SDS011;7914;50.842;0.166;2023-03-26T14:11:02;10.57;;;1.77;;
15629;SDS011;7914;50.842;0.166;2023-03-26T14:13:47;6.13;;;2.08;;
15629;SDS011;7914;50.842;0.166;2023-03-26T14:16:25;4.18;;;1.55;;
15629;SDS011;7914;50.842;0.166;2023-03-26T14:19:12;11.90;;;1.30;;
15629;SDS011;7914;50.842;0.166;2023-03-26T14:35:48;11.23;;;3.05;;
15629;SDS011;7914;50.842;0.166;2023-03-26T14:41:16;11.82;;;2.55;;
15629;SDS011;7914;50.842;0.166;2023-03-26T14:43:51;8.40;;;1.80;;
15629;SDS011;7914;50.842;0.166;2023-03-26T14:46:49;6.57;;;3.28;;
15629;SDS011;7914;50.842;0.166;2023-03-26T14:49:27;10.82;;;3.70;;
15629;SDS011;7914;50.842;0.166;2023-03-26T14:52:01;8.23;;;2.22;;
15629;SDS011;7914;50.842;0.166;2023-03-26T14:54:44;17.17;;;3.83;;
15629;SDS011;7914;50.842;0.166;2023-03-26T14:57:35;8.93;;;2.92;;
15629;SDS011;7914;50.842;0.166;2023-03-26T15:06:02;4.15;;;1.67;;
15629;SDS011;7914;50.842;0.166;2023-03-26T15:08:56;5.35;;;2.63;;
15629;SDS011;7914;50.842;0.166;2023-03-26T15:11:33;8.32;;;2.20;;
15629;SDS011;7914;50.842;0.166;2023-03-26T15:14:18;10.95;;;2.97;;
15629;SDS011;7914;50.842;0.166;2023-03-26T15:31:06;6.05;;;2.22;;
15629;SDS011;7914;50.842;0.166;2023-03-26T15:34:26;5.07;;;1.63;;
15629;SDS011;7914;50.842;0.166;2023-03-26T15:42:47;11.80;;;2.22;;
15629;SDS011;7914;50.842;0.166;2023-03-26T15:45:33;5.43;;;2.20;;
15629;SDS011;7914;50.842;0.166;2023-03-26T15:58:25;9.98;;;2.10;;
15629;SDS011;7914;50.842;0.166;2023-03-26T16:06:36;14.40;;;4.10;;
15629;SDS011;7914;50.842;0.166;2023-03-26T16:09:32;13.93;;;3.38;;
15629;SDS011;7914;50.842;0.166;2023-03-26T16:14:40;14.10;;;3.05;;
15629;SDS011;7914;50.842;0.166;2023-03-26T16:17:18;10.48;;;2.75;;
15629;SDS011;7914;50.842;0.166;2023-03-26T16:22:36;7.97;;;2.90;;
15629;SDS011;7914;50.842;0.166;2023-03-26T16:30:37;15.15;;;5.13;;
15629;SDS011;7914;50.842;0.166;2023-03-26T16:33:17;10.43;;;2.65;;
15629;SDS011;7914;50.842;0.166;2023-03-26T16:38:44;13.38;;;5.85;;
15629;SDS011;7914;50.842;0.166;2023-03-26T16:41:25;12.98;;;3.17;;
15629;SDS011;7914;50.842;0.166;2023-03-26T16:44:04;18.98;;;9.07;;
15629;SDS011;7914;50.842;0.166;2023-03-26T16:46:36;19.90;;;8.82;;
15629;SDS011;7914;50.842;0.166;2023-03-26T16:52:01;16.20;;;5.85;;
15629;SDS011;7914;50.842;0.166;2023-03-26T16:54:53;16.25;;;5.05;;
15629;SDS011;7914;50.842;0.166;2023-03-26T17:00:28;19.88;;;4.05;;
15629;SDS011;7914;50.842;0.166;2023-03-26T17:03:24;8.48;;;3.53;;
15629;SDS011;7914;50.842;0.166;2023-03-26T17:05:57;9.27;;;2.88;;
15629;SDS011;7914;50.842;0.166;2023-03-26T17:08:33;9.80;;;3.05;;
15629;SDS011;7914;50.842;0.166;2023-03-26T17:17:24;8.98;;;4.80;;
15629;SDS011;7914;50.842;0.166;2023-03-26T17:20:00;9.48;;;4.85;;
15629;SDS011;7914;50.842;0.166;2023-03-26T17:25:56;13.60;;;4.35;;
15629;SDS011;7914;50.842;0.166;2023-03-26T17:28:46;8.85;;;3.08;;
15629;SDS011;7914;50.842;0.166;2023-03-26T17:31:23;10.30;;;3.13;;
15629;SDS011;7914;50.842;0.166;2023-03-26T17:40:29;12.10;;;4.82;;
15629;SDS011;7914;50.842;0.166;2023-03-26T17:42:59;10.05;;;4.20;;
15629;SDS011;7914;50.842;0.166;2023-03-26T17:45:27;6.15;;;2.78;;
15629;SDS011;7914;50.842;0.166;2023-03-26T17:48:09;5.70;;;1.23;;
15629;SDS011;7914;50.842;0.166;2023-03-26T17:50:53;7.75;;;1.90;;
15629;SDS011;7914;50.842;0.166;2023-03-26T17:53:22;6.93;;;2.53;;
15629;SDS011;7914;50.842;0.166;2023-03-26T17:55:52;8.90;;;3.08;;
15629;SDS011;7914;50.842;0.166;2023-03-26T18:04:04;12.50;;;2.58;;
15629;SDS011;7914;50.842;0.166;2023-03-26T18:11:50;9.95;;;3.22;;
15629;SDS011;7914;50.842;0.166;2023-03-26T18:17:14;9.25;;;3.15;;
15629;SDS011;7914;50.842;0.166;2023-03-26T18:19:53;11.43;;;6.07;;
15629;SDS011;7914;50.842;0.166;2023-03-26T18:22:27;10.40;;;4.00;;
15629;SDS011;7914;50.842;0.166;2023-03-26T18:24:55;10.32;;;4.57;;
15629;SDS011;7914;50.842;0.166;2023-03-26T18:27:24;10.52;;;6.40;;
15629;SDS011;7914;50.842;0.166;2023-03-26T18:32:28;38.03;;;20.23;;
15629;SDS011;7914;50.842;0.166;2023-03-26T18:35:13;7.78;;;3.20;;
15629;SDS011;7914;50.842;0.166;2023-03-26T18:37:44;9.43;;;2.70;;
15629;SDS011;7914;50.842;0.166;2023-03-26T18:40:17;11.23;;;2.92;;
15629;SDS011;7914;50.842;0.166;2023-03-26T18:47:47;10.13;;;2.00;;
15629;SDS011;7914;50.842;0.166;2023-03-26T18:50:17;8.23;;;2.40;;
15629;SDS011;7914;50.842;0.166;2023-03-26T18:52:58;7.88;;;2.70;;
15629;SDS011;7914;50.842;0.166;2023-03-26T18:55:31;9.32;;;2.92;;
15629;SDS011;7914;50.842;0.166;2023-03-26T18:58:37;13.90;;;2.70;;
15629;SDS011;7914;50.842;0.166;2023-03-26T19:00:59;5.53;;;2.30;;
15629;SDS011;7914;50.842;0.166;2023-03-26T19:03:35;9.23;;;2.22;;
15629;SDS011;7914;50.842;0.166;2023-03-26T19:06:03;8.80;;;2.30;;
15629;SDS011;7914;50.842;0.166;2023-03-26T19:08:34;7.70;;;2.40;;
15629;SDS011;7914;50.842;0.166;2023-03-26T19:11:05;14.52;;;4.00;;
15629;SDS011;7914;50.842;0.166;2023-03-26T19:13:35;12.75;;;4.40;;
15629;SDS011;7914;50.842;0.166;2023-03-26T19:16:07;21.45;;;8.35;;
15629;SDS011;7914;50.842;0.166;2023-03-26T19:18:50;11.90;;;4.35;;
15629;SDS011;7914;50.842;0.166;2023-03-26T19:21:16;11.80;;;4.18;;
15629;SDS011;7914;50.842;0.166;2023-03-26T19:23:44;7.70;;;3.05;;
15629;SDS011;7914;50.842;0.166;2023-03-26T19:26:11;10.73;;;3.35;;
15629;SDS011;7914;50.842;0.166;2023-03-26T19:28:38;19.90;;;8.93;;
15629;SDS011;7914;50.842;0.166;2023-03-26T19:34:02;11.25;;;4.40;;
15629;SDS011;7914;50.842;0.166;2023-03-26T19:36:53;11.07;;;4.82;;
15629;SDS011;7914;50.842;0.166;2023-03-26T19:39:43;11.00;;;5.03;;
15629;SDS011;7914;50.842;0.166;2023-03-26T19:44:56;13.15;;;6.32;;
15629;SDS011;7914;50.842;0.166;2023-03-26T19:47:30;13.95;;;5.88;;
15629;SDS011;7914;50.842;0.166;2023-03-26T19:53:02;14.05;;;8.70;;
15629;SDS011;7914;50.842;0.166;2023-03-26T19:55:28;16.75;;;10.43;;
15629;SDS011;7914;50.842;0.166;2023-03-26T19:57:54;5.28;;;2.22;;
15629;SDS011;7914;50.842;0.166;2023-03-26T20:00:21;8.65;;;3.30;;
15629;SDS011;7914;50.842;0.166;2023-03-26T20:02:47;13.27;;;7.68;;
15629;SDS011;7914;50.842;0.166;2023-03-26T20:05:14;7.63;;;4.03;;
15629;SDS011;7914;50.842;0.166;2023-03-26T20:07:47;8.07;;;3.20;;
15629;SDS011;7914;50.842;0.166;2023-03-26T20:10:14;10.32;;;2.50;;
15629;SDS011;7914;50.842;0.166;2023-03-26T20:12:40;41.78;;;22.95;;
15629;SDS011;7914;50.842;0.166;2023-03-26T20:15:23;34.28;;;19.00;;
15629;SDS011;7914;50.842;0.166;2023-03-26T20:17:51;12.65;;;6.50;;
15629;SDS011;7914;50.842;0.166;2023-03-26T20:20:19;10.85;;;3.35;;
15629;SDS011;7914;50.842;0.166;2023-03-26T20:22:45;11.70;;;3.90;;
15629;SDS011;7914;50.842;0.166;2023-03-26T20:25:19;11.48;;;4.75;;
15629;SDS011;7914;50.842;0.166;2023-03-26T20:27:47;8.13;;;2.42;;
15629;SDS011;7914;50.842;0.166;2023-03-26T20:30:13;10.52;;;4.90;;
15629;SDS011;7914;50.842;0.166;2023-03-26T20:32:40;7.82;;;2.88;;
15629;SDS011;7914;50.842;0.166;2023-03-26T20:35:13;8.40;;;3.40;;
15629;SDS011;7914;50.842;0.166;2023-03-26T20:37:47;8.60;;;2.10;;
15629;SDS011;7914;50.842;0.166;2023-03-26T20:40:14;10.73;;;2.15;;
15629;SDS011;7914;50.842;0.166;2023-03-26T20:42:41;5.03;;;2.10;;
15629;SDS011;7914;50.842;0.166;2023-03-26T20:45:19;5.03;;;1.95;;
15629;SDS011;7914;50.842;0.166;2023-03-26T20:47:46;9.85;;;2.25;;
15629;SDS011;7914;50.842;0.166;2023-03-26T20:50:16;12.68;;;1.92;;
15629;SDS011;7914;50.842;0.166;2023-03-26T20:52:47;4.18;;;1.50;;
15629;SDS011;7914;50.842;0.166;2023-03-26T20:55:18;5.30;;;1.40;;
15629;SDS011;7914;50.842;0.166;2023-03-26T20:57:48;7.05;;;1.33;;
15629;SDS011;7914;50.842;0.166;2023-03-26T21:00:16;5.28;;;1.38;;
15629;SDS011;7914;50.842;0.166;2023-03-26T21:02:46;5.97;;;1.30;;
15629;SDS011;7914;50.842;0.166;2023-03-26T21:05:15;5.78;;;1.60;;
15629;SDS011;7914;50.842;0.166;2023-03-26T21:07:49;6.68;;;1.85;;
15629;SDS011;7914;50.842;0.166;2023-03-26T21:10:17;4.78;;;1.52;;
15629;SDS011;7914;50.842;0.166;2023-03-26T21:12:46;4.05;;;1.40;;
15629;SDS011;7914;50.842;0.166;2023-03-26T21:15:30;7.85;;;1.65;;